sensor_id;sensor_type;location;lat;lon;timestamp;P1;durP1;ratioP1;P2;durP2;ratioP2
55364;SDS011;41245;45.384;20.390;2023-02-04T00:01:33;10.10;;;5.50;;
55364;SDS011;41245;45.384;20.390;2023-02-04T00:03:59;8.43;;;4.72;;
55364;SDS011;41245;45.384;20.390;2023-02-04T00:06:25;8.20;;;4.45;;
55364;SDS011;41245;45.384;20.390;2023-02-04T00:08:51;5.55;;;3.53;;
55364;SDS011;41245;45.384;20.390;2023-02-04T00:11:17;10.88;;;3.67;;
55364;SDS011;41245;45.384;20.390;2023-02-04T00:13:43;6.55;;;3.17;;
55364;SDS011;41245;45.384;20.390;2023-02-04T00:16:08;7.55;;;3.85;;
55364;SDS011;41245;45.384;20.390;2023-02-04T00:18:34;9.50;;;4.22;;
55364;SDS011;41245;45.384;20.390;2023-02-04T00:20:59;12.05;;;3.40;;
55364;SDS011;41245;45.384;20.390;2023-02-04T00:23:25;8.05;;;2.10;;
55364;SDS011;41245;45.384;20.390;2023-02-04T00:25:51;4.82;;;2.17;;
55364;SDS011;41245;45.384;20.390;2023-02-04T00:28:16;6.32;;;2.22;;
55364;SDS011;41245;45.384;20.390;2023-02-04T00:30:42;10.38;;;2.25;;
55364;SDS011;41245;45.384;20.390;2023-02-04T00:33:07;8.25;;;2.72;;
55364;SDS011;41245;45.384;20.390;2023-02-04T00:35:33;5.78;;;2.70;;
55364;SDS011;41245;45.384;20.390;2023-02-04T00:38:01;5.25;;;2.05;;
55364;SDS011;41245;45.384;20.390;2023-02-04T00:40:27;3.88;;;1.70;;
55364;SDS011;41245;45.384;20.390;2023-02-04T00:42:53;3.95;;;1.65;;
55364;SDS011;41245;45.384;20.390;2023-02-04T00:45:18;4.80;;;1.65;;
55364;SDS011;41245;45.384;20.390;2023-02-04T00:47:44;3.25;;;1.67;;
55364;SDS011;41245;45.384;20.390;2023-02-04T00:50:10;7.53;;;2.17;;
55364;SDS011;41245;45.384;20.390;2023-02-04T00:52:35;4.78;;;1.52;;
55364;SDS011;41245;45.384;20.390;2023-02-04T00:55:01;5.35;;;1.80;;
55364;SDS011;41245;45.384;20.390;2023-02-04T00:57:27;6.78;;;1.60;;
55364;SDS011;41245;45.384;20.390;2023-02-04T00:59:52;7.70;;;2.53;;
55364;SDS011;41245;45.384;20.390;2023-02-04T01:02:18;7.13;;;1.65;;
55364;SDS011;41245;45.384;20.390;2023-02-04T01:04:44;9.05;;;1.83;;
55364;SDS011;41245;45.384;20.390;2023-02-04T01:07:09;8.77;;;2.15;;
55364;SDS011;41245;45.384;20.390;2023-02-04T01:09:35;8.73;;;1.85;;
55364;SDS011;41245;45.384;20.390;2023-02-04T01:12:01;9.85;;;1.95;;
55364;SDS011;41245;45.384;20.390;2023-02-04T01:14:27;11.60;;;1.42;;
55364;SDS011;41245;45.384;20.390;2023-02-04T01:16:53;6.20;;;1.48;;
55364;SDS011;41245;45.384;20.390;2023-02-04T01:19:19;11.35;;;1.90;;
55364;SDS011;41245;45.384;20.390;2023-02-04T01:21:45;8.55;;;1.65;;
55364;SDS011;41245;45.384;20.390;2023-02-04T01:24:11;7.28;;;1.35;;
55364;SDS011;41245;45.384;20.390;2023-02-04T01:26:37;10.88;;;2.10;;
55364;SDS011;41245;45.384;20.390;2023-02-04T01:29:03;7.28;;;1.65;;
55364;SDS011;41245;45.384;20.390;2023-02-04T01:31:29;9.10;;;2.17;;
55364;SDS011;41245;45.384;20.390;2023-02-04T01:33:56;5.57;;;2.75;;
55364;SDS011;41245;45.384;20.390;2023-02-04T01:36:22;7.43;;;1.58;;
55364;SDS011;41245;45.384;20.390;2023-02-04T01:38:48;4.47;;;1.40;;
55364;SDS011;41245;45.384;20.390;2023-02-04T01:41:15;5.68;;;1.20;;
55364;SDS011;41245;45.384;20.390;2023-02-04T01:43:41;6.70;;;1.23;;
55364;SDS011;41245;45.384;20.390;2023-02-04T01:46:07;8.95;;;2.15;;
55364;SDS011;41245;45.384;20.390;2023-02-04T01:48:33;8.77;;;2.15;;
55364;SDS011;41245;45.384;20.390;2023-02-04T01:51:13;8.90;;;1.83;;
55364;SDS011;41245;45.384;20.390;2023-02-04T01:53:40;8.95;;;2.10;;
55364;SDS011;41245;45.384;20.390;2023-02-04T01:56:25;9.75;;;1.80;;
55364;SDS011;41245;45.384;20.390;2023-02-04T01:58:52;12.05;;;2.30;;
55364;SDS011;41245;45.384;20.390;2023-02-04T02:01:38;10.95;;;1.90;;
55364;SDS011;41245;45.384;20.390;2023-02-04T02:04:08;5.95;;;1.70;;
55364;SDS011;41245;45.384;20.390;2023-02-04T02:06:35;12.13;;;1.70;;
55364;SDS011;41245;45.384;20.390;2023-02-04T02:09:01;3.95;;;1.35;;
55364;SDS011;41245;45.384;20.390;2023-02-04T02:11:27;7.93;;;1.85;;
55364;SDS011;41245;45.384;20.390;2023-02-04T02:13:54;5.20;;;1.80;;
55364;SDS011;41245;45.384;20.390;2023-02-04T02:16:20;4.20;;;2.20;;
55364;SDS011;41245;45.384;20.390;2023-02-04T02:18:46;7.07;;;1.60;;
55364;SDS011;41245;45.384;20.390;2023-02-04T02:21:13;4.03;;;2.22;;
55364;SDS011;41245;45.384;20.390;2023-02-04T02:23:50;10.30;;;2.15;;
55364;SDS011;41245;45.384;20.390;2023-02-04T02:26:17;9.40;;;2.20;;
55364;SDS011;41245;45.384;20.390;2023-02-04T02:28:44;11.07;;;2.75;;
55364;SDS011;41245;45.384;20.390;2023-02-04T02:31:12;8.98;;;2.05;;
55364;SDS011;41245;45.384;20.390;2023-02-04T02:33:38;5.18;;;1.55;;
55364;SDS011;41245;45.384;20.390;2023-02-04T02:36:04;5.90;;;1.90;;
55364;SDS011;41245;45.384;20.390;2023-02-04T02:38:30;9.95;;;1.75;;
55364;SDS011;41245;45.384;20.390;2023-02-04T02:40:56;6.05;;;1.70;;
55364;SDS011;41245;45.384;20.390;2023-02-04T02:43:24;10.40;;;3.13;;
55364;SDS011;41245;45.384;20.390;2023-02-04T02:45:51;8.48;;;1.95;;
55364;SDS011;41245;45.384;20.390;2023-02-04T02:48:18;10.25;;;2.42;;
55364;SDS011;41245;45.384;20.390;2023-02-04T02:50:44;8.98;;;1.50;;
55364;SDS011;41245;45.384;20.390;2023-02-04T02:53:11;6.38;;;1.70;;
55364;SDS011;41245;45.384;20.390;2023-02-04T02:55:37;8.98;;;2.08;;
55364;SDS011;41245;45.384;20.390;2023-02-04T02:58:03;7.35;;;2.28;;
55364;SDS011;41245;45.384;20.390;2023-02-04T03:00:30;5.00;;;1.27;;
55364;SDS011;41245;45.384;20.390;2023-02-04T03:05:22;7.60;;;1.63;;
55364;SDS011;41245;45.384;20.390;2023-02-04T03:07:49;3.28;;;1.35;;
55364;SDS011;41245;45.384;20.390;2023-02-04T03:10:16;7.78;;;1.80;;
55364;SDS011;41245;45.384;20.390;2023-02-04T03:12:42;7.03;;;1.50;;
55364;SDS011;41245;45.384;20.390;2023-02-04T03:15:09;5.43;;;1.98;;
55364;SDS011;41245;45.384;20.390;2023-02-04T03:17:35;3.42;;;1.60;;
55364;SDS011;41245;45.384;20.390;2023-02-04T03:20:01;5.65;;;2.35;;
55364;SDS011;41245;45.384;20.390;2023-02-04T03:22:28;9.40;;;1.67;;
55364;SDS011;41245;45.384;20.390;2023-02-04T03:24:54;6.22;;;2.22;;
55364;SDS011;41245;45.384;20.390;2023-02-04T03:27:22;7.43;;;1.80;;
55364;SDS011;41245;45.384;20.390;2023-02-04T03:29:48;6.50;;;1.65;;
55364;SDS011;41245;45.384;20.390;2023-02-04T03:32:14;4.93;;;1.42;;
55364;SDS011;41245;45.384;20.390;2023-02-04T03:34:40;4.90;;;1.50;;
55364;SDS011;41245;45.384;20.390;2023-02-04T03:37:06;5.05;;;2.35;;
55364;SDS011;41245;45.384;20.390;2023-02-04T03:39:32;21.05;;;3.30;;
55364;SDS011;41245;45.384;20.390;2023-02-04T03:41:58;5.85;;;2.03;;
55364;SDS011;41245;45.384;20.390;2023-02-04T03:44:24;5.22;;;1.85;;
55364;SDS011;41245;45.384;20.390;2023-02-04T03:46:53;2.95;;;1.73;;
55364;SDS011;41245;45.384;20.390;2023-02-04T03:49:20;6.53;;;2.30;;
55364;SDS011;41245;45.384;20.390;2023-02-04T03:51:47;6.45;;;2.53;;
55364;SDS011;41245;45.384;20.390;2023-02-04T03:54:13;7.18;;;2.95;;
55364;SDS011;41245;45.384;20.390;2023-02-04T03:56:39;8.68;;;2.67;;
55364;SDS011;41245;45.384;20.390;2023-02-04T03:59:05;5.68;;;1.73;;
55364;SDS011;41245;45.384;20.390;2023-02-04T04:01:31;5.53;;;2.28;;
55364;SDS011;41245;45.384;20.390;2023-02-04T04:03:57;7.35;;;2.65;;
55364;SDS011;41245;45.384;20.390;2023-02-04T04:06:23;16.00;;;2.78;;
55364;SDS011;41245;45.384;20.390;2023-02-04T04:08:49;7.18;;;2.25;;
55364;SDS011;41245;45.384;20.390;2023-02-04T04:11:15;8.65;;;1.92;;
55364;SDS011;41245;45.384;20.390;2023-02-04T04:13:41;6.68;;;2.13;;
55364;SDS011;41245;45.384;20.390;2023-02-04T04:16:07;9.32;;;2.33;;
55364;SDS011;41245;45.384;20.390;2023-02-04T04:18:34;7.80;;;1.75;;
55364;SDS011;41245;45.384;20.390;2023-02-04T04:21:00;5.45;;;2.58;;
55364;SDS011;41245;45.384;20.390;2023-02-04T04:23:26;11.00;;;2.03;;
55364;SDS011;41245;45.384;20.390;2023-02-04T04:25:52;6.22;;;1.77;;
55364;SDS011;41245;45.384;20.390;2023-02-04T04:28:18;11.77;;;2.53;;
55364;SDS011;41245;45.384;20.390;2023-02-04T04:30:44;5.55;;;2.60;;
55364;SDS011;41245;45.384;20.390;2023-02-04T04:33:10;6.63;;;2.45;;
55364;SDS011;41245;45.384;20.390;2023-02-04T04:35:36;8.18;;;3.00;;
55364;SDS011;41245;45.384;20.390;2023-02-04T04:38:02;7.43;;;2.13;;
55364;SDS011;41245;45.384;20.390;2023-02-04T04:40:28;7.40;;;2.47;;
55364;SDS011;41245;45.384;20.390;2023-02-04T04:42:54;6.50;;;1.90;;
55364;SDS011;41245;45.384;20.390;2023-02-04T04:45:20;10.57;;;2.47;;
55364;SDS011;41245;45.384;20.390;2023-02-04T04:47:46;8.13;;;1.50;;
55364;SDS011;41245;45.384;20.390;2023-02-04T04:50:12;5.40;;;1.77;;
55364;SDS011;41245;45.384;20.390;2023-02-04T04:52:38;5.63;;;2.03;;
55364;SDS011;41245;45.384;20.390;2023-02-04T04:55:04;3.65;;;1.30;;
55364;SDS011;41245;45.384;20.390;2023-02-04T04:57:30;6.55;;;2.08;;
55364;SDS011;41245;45.384;20.390;2023-02-04T04:59:56;6.13;;;2.05;;
55364;SDS011;41245;45.384;20.390;2023-02-04T05:02:22;7.25;;;1.83;;
55364;SDS011;41245;45.384;20.390;2023-02-04T05:04:48;8.40;;;2.25;;
55364;SDS011;41245;45.384;20.390;2023-02-04T05:07:14;12.85;;;2.22;;
55364;SDS011;41245;45.384;20.390;2023-02-04T05:09:40;13.82;;;3.13;;
55364;SDS011;41245;45.384;20.390;2023-02-04T05:12:06;5.53;;;1.95;;
55364;SDS011;41245;45.384;20.390;2023-02-04T05:14:32;3.83;;;1.50;;
55364;SDS011;41245;45.384;20.390;2023-02-04T05:16:58;10.27;;;1.50;;
55364;SDS011;41245;45.384;20.390;2023-02-04T05:19:24;4.38;;;2.33;;
55364;SDS011;41245;45.384;20.390;2023-02-04T05:21:50;5.65;;;1.98;;
55364;SDS011;41245;45.384;20.390;2023-02-04T05:24:16;10.07;;;1.65;;
55364;SDS011;41245;45.384;20.390;2023-02-04T05:26:42;6.00;;;2.00;;
55364;SDS011;41245;45.384;20.390;2023-02-04T05:29:08;15.82;;;3.08;;
55364;SDS011;41245;45.384;20.390;2023-02-04T05:31:34;6.80;;;1.95;;
55364;SDS011;41245;45.384;20.390;2023-02-04T05:34:00;6.03;;;1.60;;
55364;SDS011;41245;45.384;20.390;2023-02-04T05:36:26;6.05;;;1.45;;
55364;SDS011;41245;45.384;20.390;2023-02-04T05:38:52;7.25;;;1.55;;
55364;SDS011;41245;45.384;20.390;2023-02-04T05:41:18;8.77;;;1.88;;
55364;SDS011;41245;45.384;20.390;2023-02-04T05:43:44;3.53;;;1.60;;
55364;SDS011;41245;45.384;20.390;2023-02-04T05:46:10;5.70;;;1.45;;
55364;SDS011;41245;45.384;20.390;2023-02-04T05:48:36;6.25;;;1.80;;
55364;SDS011;41245;45.384;20.390;2023-02-04T05:51:04;5.15;;;2.05;;
55364;SDS011;41245;45.384;20.390;2023-02-04T05:53:30;5.22;;;1.70;;
55364;SDS011;41245;45.384;20.390;2023-02-04T05:55:56;2.97;;;0.90;;
55364;SDS011;41245;45.384;20.390;2023-02-04T05:58:22;7.60;;;1.45;;
55364;SDS011;41245;45.384;20.390;2023-02-04T06:00:48;3.63;;;1.90;;
55364;SDS011;41245;45.384;20.390;2023-02-04T06:03:14;5.55;;;1.83;;
55364;SDS011;41245;45.384;20.390;2023-02-04T06:05:43;9.88;;;2.00;;
55364;SDS011;41245;45.384;20.390;2023-02-04T06:08:09;5.20;;;1.52;;
55364;SDS011;41245;45.384;20.390;2023-02-04T06:10:35;5.78;;;1.95;;
55364;SDS011;41245;45.384;20.390;2023-02-04T06:13:01;5.80;;;2.05;;
55364;SDS011;41245;45.384;20.390;2023-02-04T06:15:27;10.35;;;1.67;;
55364;SDS011;41245;45.384;20.390;2023-02-04T06:17:53;3.67;;;1.30;;
55364;SDS011;41245;45.384;20.390;2023-02-04T06:20:19;7.68;;;2.28;;
55364;SDS011;41245;45.384;20.390;2023-02-04T06:22:45;12.05;;;2.00;;
55364;SDS011;41245;45.384;20.390;2023-02-04T06:25:11;5.50;;;1.40;;
55364;SDS011;41245;45.384;20.390;2023-02-04T06:27:37;6.53;;;1.60;;
55364;SDS011;41245;45.384;20.390;2023-02-04T06:30:03;4.53;;;1.38;;
55364;SDS011;41245;45.384;20.390;2023-02-04T06:32:29;4.18;;;1.60;;
55364;SDS011;41245;45.384;20.390;2023-02-04T06:34:55;2.42;;;1.13;;
55364;SDS011;41245;45.384;20.390;2023-02-04T06:37:21;7.03;;;3.00;;
55364;SDS011;41245;45.384;20.390;2023-02-04T06:39:47;6.60;;;1.90;;
55364;SDS011;41245;45.384;20.390;2023-02-04T06:42:13;3.83;;;1.42;;
55364;SDS011;41245;45.384;20.390;2023-02-04T06:44:39;14.63;;;4.18;;
55364;SDS011;41245;45.384;20.390;2023-02-04T06:47:05;5.70;;;1.45;;
55364;SDS011;41245;45.384;20.390;2023-02-04T06:49:31;7.90;;;3.22;;
55364;SDS011;41245;45.384;20.390;2023-02-04T06:51:57;7.00;;;2.00;;
55364;SDS011;41245;45.384;20.390;2023-02-04T06:54:23;5.35;;;1.35;;
55364;SDS011;41245;45.384;20.390;2023-02-04T06:56:49;6.20;;;1.83;;
55364;SDS011;41245;45.384;20.390;2023-02-04T06:59:16;11.50;;;1.67;;
55364;SDS011;41245;45.384;20.390;2023-02-04T07:01:42;7.88;;;2.38;;
55364;SDS011;41245;45.384;20.390;2023-02-04T07:04:08;6.72;;;1.70;;
55364;SDS011;41245;45.384;20.390;2023-02-04T07:06:34;11.82;;;2.55;;
55364;SDS011;41245;45.384;20.390;2023-02-04T07:09:00;8.43;;;2.92;;
55364;SDS011;41245;45.384;20.390;2023-02-04T07:11:26;13.57;;;3.03;;
55364;SDS011;41245;45.384;20.390;2023-02-04T07:13:52;12.77;;;2.47;;
55364;SDS011;41245;45.384;20.390;2023-02-04T07:16:18;7.32;;;2.30;;
55364;SDS011;41245;45.384;20.390;2023-02-04T07:18:44;4.28;;;2.47;;
55364;SDS011;41245;45.384;20.390;2023-02-04T07:21:10;6.53;;;2.53;;
55364;SDS011;41245;45.384;20.390;2023-02-04T07:23:36;5.72;;;1.65;;
55364;SDS011;41245;45.384;20.390;2023-02-04T07:26:02;5.80;;;1.75;;
55364;SDS011;41245;45.384;20.390;2023-02-04T07:28:28;11.13;;;2.47;;
55364;SDS011;41245;45.384;20.390;2023-02-04T07:30:55;7.90;;;1.67;;
55364;SDS011;41245;45.384;20.390;2023-02-04T07:33:21;7.10;;;2.90;;
55364;SDS011;41245;45.384;20.390;2023-02-04T07:35:47;5.63;;;2.70;;
55364;SDS011;41245;45.384;20.390;2023-02-04T07:38:13;7.20;;;3.13;;
55364;SDS011;41245;45.384;20.390;2023-02-04T07:40:39;7.00;;;1.80;;
55364;SDS011;41245;45.384;20.390;2023-02-04T07:43:05;5.13;;;1.80;;
55364;SDS011;41245;45.384;20.390;2023-02-04T07:45:31;9.63;;;3.08;;
55364;SDS011;41245;45.384;20.390;2023-02-04T07:47:57;5.82;;;2.25;;
55364;SDS011;41245;45.384;20.390;2023-02-04T07:50:23;5.80;;;2.38;;
55364;SDS011;41245;45.384;20.390;2023-02-04T07:52:49;15.55;;;3.17;;
55364;SDS011;41245;45.384;20.390;2023-02-04T07:55:15;15.15;;;3.90;;
55364;SDS011;41245;45.384;20.390;2023-02-04T07:57:42;9.23;;;4.00;;
55364;SDS011;41245;45.384;20.390;2023-02-04T08:00:08;8.35;;;3.22;;
55364;SDS011;41245;45.384;20.390;2023-02-04T08:02:34;10.48;;;3.60;;
55364;SDS011;41245;45.384;20.390;2023-02-04T08:05:00;10.02;;;2.72;;
55364;SDS011;41245;45.384;20.390;2023-02-04T08:07:27;11.70;;;2.70;;
55364;SDS011;41245;45.384;20.390;2023-02-04T08:09:53;7.07;;;2.60;;
55364;SDS011;41245;45.384;20.390;2023-02-04T08:12:19;12.32;;;3.38;;
55364;SDS011;41245;45.384;20.390;2023-02-04T08:14:44;9.80;;;2.92;;
55364;SDS011;41245;45.384;20.390;2023-02-04T08:17:10;11.07;;;3.45;;
55364;SDS011;41245;45.384;20.390;2023-02-04T08:19:36;8.43;;;2.85;;
55364;SDS011;41245;45.384;20.390;2023-02-04T08:22:02;7.07;;;3.50;;
55364;SDS011;41245;45.384;20.390;2023-02-04T08:24:28;4.70;;;2.50;;
55364;SDS011;41245;45.384;20.390;2023-02-04T08:26:54;10.27;;;3.20;;
55364;SDS011;41245;45.384;20.390;2023-02-04T08:29:22;8.10;;;3.80;;
55364;SDS011;41245;45.384;20.390;2023-02-04T08:31:49;7.13;;;3.33;;
55364;SDS011;41245;45.384;20.390;2023-02-04T08:34:15;7.82;;;3.00;;
55364;SDS011;41245;45.384;20.390;2023-02-04T08:36:41;8.07;;;3.97;;
55364;SDS011;41245;45.384;20.390;2023-02-04T08:39:08;8.52;;;3.10;;
55364;SDS011;41245;45.384;20.390;2023-02-04T08:41:34;6.55;;;2.40;;
55364;SDS011;41245;45.384;20.390;2023-02-04T08:44:00;6.60;;;3.17;;
55364;SDS011;41245;45.384;20.390;2023-02-04T08:46:26;2.83;;;1.60;;
55364;SDS011;41245;45.384;20.390;2023-02-04T08:48:53;4.10;;;1.30;;
55364;SDS011;41245;45.384;20.390;2023-02-04T08:51:19;5.53;;;1.42;;
55364;SDS011;41245;45.384;20.390;2023-02-04T08:53:45;6.85;;;1.10;;
55364;SDS011;41245;45.384;20.390;2023-02-04T08:56:11;1.77;;;1.58;;
55364;SDS011;41245;45.384;20.390;2023-02-04T08:58:42;4.22;;;1.75;;
55364;SDS011;41245;45.384;20.390;2023-02-04T09:01:09;2.72;;;1.17;;
55364;SDS011;41245;45.384;20.390;2023-02-04T09:03:35;4.95;;;1.75;;
55364;SDS011;41245;45.384;20.390;2023-02-04T09:06:01;5.07;;;2.78;;
55364;SDS011;41245;45.384;20.390;2023-02-04T09:08:27;4.88;;;1.98;;
55364;SDS011;41245;45.384;20.390;2023-02-04T09:10:53;3.83;;;2.40;;
55364;SDS011;41245;45.384;20.390;2023-02-04T09:13:19;3.05;;;2.20;;
55364;SDS011;41245;45.384;20.390;2023-02-04T09:15:45;3.80;;;2.22;;
55364;SDS011;41245;45.384;20.390;2023-02-04T09:18:11;4.25;;;1.58;;
55364;SDS011;41245;45.384;20.390;2023-02-04T09:20:43;4.93;;;2.20;;
55364;SDS011;41245;45.384;20.390;2023-02-04T09:23:09;1.65;;;1.40;;
55364;SDS011;41245;45.384;20.390;2023-02-04T09:25:39;3.88;;;1.90;;
55364;SDS011;41245;45.384;20.390;2023-02-04T09:28:05;4.28;;;2.10;;
55364;SDS011;41245;45.384;20.390;2023-02-04T09:30:34;1.60;;;1.15;;
55364;SDS011;41245;45.384;20.390;2023-02-04T09:33:00;2.55;;;1.55;;
55364;SDS011;41245;45.384;20.390;2023-02-04T09:35:26;3.53;;;1.42;;
55364;SDS011;41245;45.384;20.390;2023-02-04T09:37:52;1.67;;;1.45;;
55364;SDS011;41245;45.384;20.390;2023-02-04T09:40:18;1.98;;;1.35;;
55364;SDS011;41245;45.384;20.390;2023-02-04T09:42:47;3.03;;;1.80;;
55364;SDS011;41245;45.384;20.390;2023-02-04T09:45:30;4.35;;;1.23;;
55364;SDS011;41245;45.384;20.390;2023-02-04T09:47:57;3.42;;;1.50;;
55364;SDS011;41245;45.384;20.390;2023-02-04T09:50:25;3.15;;;1.85;;
55364;SDS011;41245;45.384;20.390;2023-02-04T09:52:52;3.20;;;1.92;;
55364;SDS011;41245;45.384;20.390;2023-02-04T09:55:20;4.20;;;2.25;;
55364;SDS011;41245;45.384;20.390;2023-02-04T09:57:46;2.08;;;1.50;;
55364;SDS011;41245;45.384;20.390;2023-02-04T10:02:39;3.63;;;1.88;;
55364;SDS011;41245;45.384;20.390;2023-02-04T10:05:05;4.30;;;2.63;;
55364;SDS011;41245;45.384;20.390;2023-02-04T10:07:31;5.32;;;2.83;;
55364;SDS011;41245;45.384;20.390;2023-02-04T10:09:57;9.25;;;3.10;;
55364;SDS011;41245;45.384;20.390;2023-02-04T10:12:23;5.07;;;2.70;;
55364;SDS011;41245;45.384;20.390;2023-02-04T10:14:49;5.70;;;3.08;;
55364;SDS011;41245;45.384;20.390;2023-02-04T10:17:19;4.47;;;2.42;;
55364;SDS011;41245;45.384;20.390;2023-02-04T10:19:45;4.72;;;2.72;;
55364;SDS011;41245;45.384;20.390;2023-02-04T10:22:15;3.85;;;3.15;;
55364;SDS011;41245;45.384;20.390;2023-02-04T10:24:42;5.18;;;3.33;;
55364;SDS011;41245;45.384;20.390;2023-02-04T10:27:08;9.63;;;5.05;;
55364;SDS011;41245;45.384;20.390;2023-02-04T10:29:35;7.97;;;3.63;;
55364;SDS011;41245;45.384;20.390;2023-02-04T10:32:01;8.07;;;4.95;;
55364;SDS011;41245;45.384;20.390;2023-02-04T10:34:34;13.32;;;4.95;;
55364;SDS011;41245;45.384;20.390;2023-02-04T10:37:10;7.00;;;4.95;;
55364;SDS011;41245;45.384;20.390;2023-02-04T10:39:40;13.35;;;5.85;;
55364;SDS011;41245;45.384;20.390;2023-02-04T10:42:17;12.27;;;7.20;;
55364;SDS011;41245;45.384;20.390;2023-02-04T10:44:47;4.60;;;3.53;;
55364;SDS011;41245;45.384;20.390;2023-02-04T10:47:17;8.23;;;3.43;;
55364;SDS011;41245;45.384;20.390;2023-02-04T10:50:17;9.50;;;5.32;;
55364;SDS011;41245;45.384;20.390;2023-02-04T10:52:37;7.68;;;4.72;;
55364;SDS011;41245;45.384;20.390;2023-02-04T10:55:04;10.90;;;3.90;;
55364;SDS011;41245;45.384;20.390;2023-02-04T10:57:31;8.63;;;4.60;;
55364;SDS011;41245;45.384;20.390;2023-02-04T11:00:00;6.70;;;4.28;;
55364;SDS011;41245;45.384;20.390;2023-02-04T11:05:02;6.82;;;4.22;;
55364;SDS011;41245;45.384;20.390;2023-02-04T11:07:29;8.55;;;4.63;;
55364;SDS011;41245;45.384;20.390;2023-02-04T11:09:55;9.45;;;3.78;;
55364;SDS011;41245;45.384;20.390;2023-02-04T11:12:22;4.03;;;3.22;;
55364;SDS011;41245;45.384;20.390;2023-02-04T11:14:55;10.20;;;4.43;;
55364;SDS011;41245;45.384;20.390;2023-02-04T11:17:27;7.65;;;4.28;;
55364;SDS011;41245;45.384;20.390;2023-02-04T11:19:55;5.22;;;3.60;;
55364;SDS011;41245;45.384;20.390;2023-02-04T11:22:41;12.38;;;5.32;;
55364;SDS011;41245;45.384;20.390;2023-02-04T11:27:51;7.20;;;4.82;;
55364;SDS011;41245;45.384;20.390;2023-02-04T11:30:20;8.00;;;4.97;;
55364;SDS011;41245;45.384;20.390;2023-02-04T11:33:03;6.78;;;4.10;;
55364;SDS011;41245;45.384;20.390;2023-02-04T11:35:29;5.40;;;3.55;;
55364;SDS011;41245;45.384;20.390;2023-02-04T11:37:56;7.88;;;4.38;;
55364;SDS011;41245;45.384;20.390;2023-02-04T11:40:29;7.47;;;4.05;;
55364;SDS011;41245;45.384;20.390;2023-02-04T11:43:02;8.20;;;4.10;;
55364;SDS011;41245;45.384;20.390;2023-02-04T11:45:34;7.40;;;4.82;;
55364;SDS011;41245;45.384;20.390;2023-02-04T11:48:02;6.50;;;4.38;;
55364;SDS011;41245;45.384;20.390;2023-02-04T11:50:32;4.82;;;3.20;;
55364;SDS011;41245;45.384;20.390;2023-02-04T11:55:26;11.05;;;4.43;;
55364;SDS011;41245;45.384;20.390;2023-02-04T11:57:54;7.20;;;3.97;;
55364;SDS011;41245;45.384;20.390;2023-02-04T12:00:22;4.68;;;3.67;;
55364;SDS011;41245;45.384;20.390;2023-02-04T12:02:57;9.88;;;5.97;;
55364;SDS011;41245;45.384;20.390;2023-02-04T12:13:51;10.07;;;5.85;;
55364;SDS011;41245;45.384;20.390;2023-02-04T12:16:19;10.77;;;5.68;;
55364;SDS011;41245;45.384;20.390;2023-02-04T12:18:45;10.15;;;6.07;;
55364;SDS011;41245;45.384;20.390;2023-02-04T12:21:11;7.82;;;5.30;;
55364;SDS011;41245;45.384;20.390;2023-02-04T12:23:38;10.13;;;4.78;;
55364;SDS011;41245;45.384;20.390;2023-02-04T12:26:06;13.98;;;6.53;;
55364;SDS011;41245;45.384;20.390;2023-02-04T12:28:32;14.55;;;6.72;;
55364;SDS011;41245;45.384;20.390;2023-02-04T12:30:58;10.45;;;4.95;;
55364;SDS011;41245;45.384;20.390;2023-02-04T12:33:24;7.38;;;4.20;;
55364;SDS011;41245;45.384;20.390;2023-02-04T12:35:50;7.05;;;4.03;;
55364;SDS011;41245;45.384;20.390;2023-02-04T12:38:16;10.75;;;5.68;;
55364;SDS011;41245;45.384;20.390;2023-02-04T12:40:43;6.13;;;3.80;;
55364;SDS011;41245;45.384;20.390;2023-02-04T12:43:09;8.52;;;4.93;;
55364;SDS011;41245;45.384;20.390;2023-02-04T12:45:35;14.30;;;7.78;;
55364;SDS011;41245;45.384;20.390;2023-02-04T12:48:01;14.00;;;7.22;;
55364;SDS011;41245;45.384;20.390;2023-02-04T12:50:27;15.10;;;4.70;;
55364;SDS011;41245;45.384;20.390;2023-02-04T12:52:54;18.17;;;8.95;;
55364;SDS011;41245;45.384;20.390;2023-02-04T12:55:21;10.80;;;5.45;;
55364;SDS011;41245;45.384;20.390;2023-02-04T12:57:48;11.15;;;5.78;;
55364;SDS011;41245;45.384;20.390;2023-02-04T13:00:14;8.60;;;4.07;;
55364;SDS011;41245;45.384;20.390;2023-02-04T13:02:41;5.18;;;3.42;;
55364;SDS011;41245;45.384;20.390;2023-02-04T13:05:07;7.55;;;3.45;;
55364;SDS011;41245;45.384;20.390;2023-02-04T13:07:34;8.82;;;5.00;;
55364;SDS011;41245;45.384;20.390;2023-02-04T13:10:00;6.50;;;3.63;;
55364;SDS011;41245;45.384;20.390;2023-02-04T13:12:26;10.45;;;4.82;;
55364;SDS011;41245;45.384;20.390;2023-02-04T13:14:52;6.47;;;4.13;;
55364;SDS011;41245;45.384;20.390;2023-02-04T13:17:18;6.25;;;3.63;;
55364;SDS011;41245;45.384;20.390;2023-02-04T13:19:44;4.93;;;3.22;;
55364;SDS011;41245;45.384;20.390;2023-02-04T13:22:10;4.40;;;3.30;;
55364;SDS011;41245;45.384;20.390;2023-02-04T13:24:36;4.80;;;3.42;;
55364;SDS011;41245;45.384;20.390;2023-02-04T13:27:02;7.15;;;3.28;;
55364;SDS011;41245;45.384;20.390;2023-02-04T13:29:28;5.80;;;3.38;;
55364;SDS011;41245;45.384;20.390;2023-02-04T13:31:54;7.30;;;3.65;;
55364;SDS011;41245;45.384;20.390;2023-02-04T13:34:20;3.55;;;2.30;;
55364;SDS011;41245;45.384;20.390;2023-02-04T13:36:46;5.03;;;3.08;;
55364;SDS011;41245;45.384;20.390;2023-02-04T13:39:12;8.18;;;3.22;;
55364;SDS011;41245;45.384;20.390;2023-02-04T13:41:38;4.00;;;2.92;;
55364;SDS011;41245;45.384;20.390;2023-02-04T13:44:04;6.80;;;2.78;;
55364;SDS011;41245;45.384;20.390;2023-02-04T13:46:31;4.57;;;2.80;;
55364;SDS011;41245;45.384;20.390;2023-02-04T13:48:57;4.68;;;3.10;;
55364;SDS011;41245;45.384;20.390;2023-02-04T13:51:23;3.13;;;2.45;;
55364;SDS011;41245;45.384;20.390;2023-02-04T13:53:50;2.90;;;2.20;;
55364;SDS011;41245;45.384;20.390;2023-02-04T13:56:16;8.07;;;4.00;;
55364;SDS011;41245;45.384;20.390;2023-02-04T13:58:42;3.63;;;2.72;;
55364;SDS011;41245;45.384;20.390;2023-02-04T14:01:09;4.57;;;2.75;;
55364;SDS011;41245;45.384;20.390;2023-02-04T14:03:35;2.92;;;2.00;;
55364;SDS011;41245;45.384;20.390;2023-02-04T14:06:02;4.70;;;3.28;;
55364;SDS011;41245;45.384;20.390;2023-02-04T14:08:28;3.92;;;2.85;;
55364;SDS011;41245;45.384;20.390;2023-02-04T14:10:54;4.32;;;2.28;;
55364;SDS011;41245;45.384;20.390;2023-02-04T14:13:20;3.13;;;1.95;;
55364;SDS011;41245;45.384;20.390;2023-02-04T14:15:46;2.45;;;1.52;;
55364;SDS011;41245;45.384;20.390;2023-02-04T14:18:12;7.13;;;4.38;;
55364;SDS011;41245;45.384;20.390;2023-02-04T14:20:40;3.97;;;2.80;;
55364;SDS011;41245;45.384;20.390;2023-02-04T14:23:06;7.05;;;2.97;;
55364;SDS011;41245;45.384;20.390;2023-02-04T14:25:32;3.90;;;2.85;;
55364;SDS011;41245;45.384;20.390;2023-02-04T14:27:58;7.70;;;3.53;;
55364;SDS011;41245;45.384;20.390;2023-02-04T14:30:25;5.53;;;2.90;;
55364;SDS011;41245;45.384;20.390;2023-02-04T14:32:51;5.55;;;3.20;;
55364;SDS011;41245;45.384;20.390;2023-02-04T14:35:17;9.02;;;2.42;;
55364;SDS011;41245;45.384;20.390;2023-02-04T14:37:43;7.15;;;2.28;;
55364;SDS011;41245;45.384;20.390;2023-02-04T14:40:10;3.88;;;2.38;;
55364;SDS011;41245;45.384;20.390;2023-02-04T14:42:36;3.35;;;1.77;;
55364;SDS011;41245;45.384;20.390;2023-02-04T14:45:05;2.22;;;1.67;;
55364;SDS011;41245;45.384;20.390;2023-02-04T14:47:32;8.88;;;4.25;;
55364;SDS011;41245;45.384;20.390;2023-02-04T14:49:58;5.93;;;2.45;;
55364;SDS011;41245;45.384;20.390;2023-02-04T14:52:25;2.58;;;1.58;;